Time;durP1;ratioP1;P1;durP2;ratioP2;P2;SDS_P1;SDS_P2;PMS_P1;PMS_P2;Temp;Humidity;BMP_temperature;BMP_pressure;BME280_temperature;BME280_humidity;BME280_pressure;Samples;Min_cycle;Max_cycle;Signal;HPM_P1;HPM_P2
2023/12/25 00:02:56;;;;;;;7.07;3.38;;;;;;;;;;6271895;28;20041;-65
2023/12/25 00:05:57;;;;;;;7.07;3.97;;;;;;;;;;6273010;28;20053;-65
2023/12/25 00:08:58;;;;;;;7.35;3.40;;;;;;;;;;6267194;28;20404;-64
2023/12/25 00:11:59;;;;;;;11.13;4.28;;;;;;;;;;6267090;28;20549;-65
2023/12/25 00:14:59;;;;;;;7.90;3.75;;;;;;;;;;6268958;28;20697;-65
2023/12/25 00:18:00;;;;;;;12.80;7.00;;;;;;;;;;6263293;28;20090;-65
2023/12/25 00:21:00;;;;;;;10.77;6.10;;;;;;;;;;6271156;28;20045;-65
2023/12/25 00:24:01;;;;;;;9.63;4.07;;;;;;;;;;6270134;28;20126;-64
2023/12/25 00:27:02;;;;;;;8.35;4.20;;;;;;;;;;6264527;28;20060;-65
2023/12/25 00:30:03;;;;;;;7.32;3.60;;;;;;;;;;6271345;28;20139;-65
2023/12/25 00:33:04;;;;;;;7.18;3.70;;;;;;;;;;6270712;28;20400;-65
2023/12/25 00:36:05;;;;;;;10.85;5.80;;;;;;;;;;6270615;28;20492;-66
2023/12/25 00:39:05;;;;;;;7.85;3.63;;;;;;;;;;6263484;28;20090;-65
2023/12/25 00:42:06;;;;;;;9.23;3.85;;;;;;;;;;6266058;28;20055;-65
2023/12/25 00:45:07;;;;;;;13.27;8.65;;;;;;;;;;6266605;28;20538;-65
2023/12/25 00:48:08;;;;;;;8.27;3.55;;;;;;;;;;6266302;28;20130;-65
2023/12/25 00:51:08;;;;;;;7.97;3.75;;;;;;;;;;6265494;28;20045;-65
2023/12/25 00:54:09;;;;;;;8.32;3.63;;;;;;;;;;6282791;28;20151;-65
2023/12/25 00:57:10;;;;;;;6.72;3.45;;;;;;;;;;6269090;28;20048;-65
2023/12/25 01:00:13;;;;;;;7.35;3.80;;;;;;;;;;6267280;28;20479;-65
2023/12/25 01:03:13;;;;;;;7.38;3.20;;;;;;;;;;6268860;28;21083;-65
2023/12/25 01:06:14;;;;;;;6.93;3.15;;;;;;;;;;6270982;28;20061;-65
2023/12/25 01:09:15;;;;;;;6.00;3.05;;;;;;;;;;6264466;28;20164;-65
2023/12/25 01:12:16;;;;;;;5.88;2.63;;;;;;;;;;6268243;28;20049;-65
2023/12/25 01:15:17;;;;;;;5.80;2.50;;;;;;;;;;6269736;28;20101;-65
2023/12/25 01:18:18;;;;;;;6.32;2.67;;;;;;;;;;6267345;28;20048;-65
2023/12/25 01:21:18;;;;;;;6.28;2.90;;;;;;;;;;6267967;28;20049;-65
2023/12/25 01:24:19;;;;;;;6.43;3.20;;;;;;;;;;6264686;28;20128;-65
2023/12/25 01:27:20;;;;;;;5.28;2.65;;;;;;;;;;6268544;28;20049;-65
2023/12/25 01:30:20;;;;;;;7.47;2.70;;;;;;;;;;6271774;28;20475;-65
2023/12/25 01:33:21;;;;;;;5.90;2.55;;;;;;;;;;6292319;28;20392;-64
2023/12/25 01:36:22;;;;;;;5.40;3.05;;;;;;;;;;6310466;28;20083;-64
2023/12/25 01:39:23;;;;;;;7.25;2.65;;;;;;;;;;6310211;28;20044;-64
2023/12/25 01:42:24;;;;;;;6.63;3.42;;;;;;;;;;6312669;28;20058;-64
2023/12/25 01:45:25;;;;;;;7.03;3.53;;;;;;;;;;6312701;28;20051;-65
2023/12/25 01:48:26;;;;;;;6.97;3.17;;;;;;;;;;6313736;28;20076;-65
2023/12/25 01:51:27;;;;;;;7.88;3.08;;;;;;;;;;6297225;28;20036;-65
2023/12/25 01:54:27;;;;;;;6.05;2.55;;;;;;;;;;6295649;28;20052;-65
2023/12/25 01:57:35;;;;;;;5.43;2.38;;;;;;;;;;6306645;28;20159;-65
2023/12/25 02:00:36;;;;;;;7.22;2.60;;;;;;;;;;6301424;28;20159;-65
2023/12/25 02:03:36;;;;;;;6.88;3.13;;;;;;;;;;6316084;28;20059;-65
2023/12/25 02:06:37;;;;;;;5.88;2.28;;;;;;;;;;6311198;28;20060;-64
2023/12/25 02:09:38;;;;;;;5.35;2.22;;;;;;;;;;6310689;28;20053;-64
2023/12/25 02:12:39;;;;;;;6.18;2.63;;;;;;;;;;6302747;28;20056;-65
2023/12/25 02:15:39;;;;;;;5.45;2.30;;;;;;;;;;6311701;28;20044;-65
2023/12/25 02:18:40;;;;;;;5.22;2.30;;;;;;;;;;6307151;28;20069;-65
2023/12/25 02:21:42;;;;;;;5.00;2.10;;;;;;;;;;6315080;28;20040;-65
2023/12/25 02:25:06;;;;;;;6.78;2.60;;;;;;;;;;6310471;28;20040;-65
2023/12/25 02:28:06;;;;;;;6.07;2.40;;;;;;;;;;6312397;28;20380;-65
2023/12/25 02:31:07;;;;;;;6.60;2.38;;;;;;;;;;6310772;28;20048;-64
2023/12/25 02:34:08;;;;;;;6.18;2.13;;;;;;;;;;6313155;28;20081;-65
2023/12/25 02:37:08;;;;;;;4.82;2.33;;;;;;;;;;6314166;28;20090;-64
2023/12/25 02:40:09;;;;;;;5.43;2.30;;;;;;;;;;6312641;28;20044;-65
2023/12/25 02:43:10;;;;;;;5.68;3.10;;;;;;;;;;6315727;28;20140;-65
2023/12/25 02:46:11;;;;;;;4.85;2.50;;;;;;;;;;6313146;28;20044;-66
2023/12/25 02:49:12;;;;;;;6.13;2.40;;;;;;;;;;6312795;28;20050;-66
2023/12/25 02:52:12;;;;;;;4.47;1.98;;;;;;;;;;6312933;28;20073;-65
2023/12/25 02:55:13;;;;;;;5.65;2.20;;;;;;;;;;6314221;28;20071;-64
2023/12/25 02:58:14;;;;;;;6.65;2.40;;;;;;;;;;6311742;28;20121;-65
2023/12/25 03:01:14;;;;;;;5.18;2.40;;;;;;;;;;6309452;28;20465;-65
2023/12/25 03:04:15;;;;;;;5.40;2.58;;;;;;;;;;6311226;28;20052;-64
2023/12/25 03:07:16;;;;;;;4.38;2.35;;;;;;;;;;6312515;28;20491;-65
2023/12/25 03:10:17;;;;;;;7.88;3.17;;;;;;;;;;6309547;28;20059;-65
2023/12/25 03:13:19;;;;;;;6.45;2.50;;;;;;;;;;6312037;28;20048;-64
2023/12/25 03:16:19;;;;;;;6.97;2.20;;;;;;;;;;6316776;28;20059;-64
2023/12/25 03:19:20;;;;;;;6.65;2.85;;;;;;;;;;6311032;28;20075;-65
2023/12/25 03:22:20;;;;;;;6.28;2.35;;;;;;;;;;6312459;28;20059;-65
2023/12/25 03:25:21;;;;;;;6.32;2.80;;;;;;;;;;6310766;28;20071;-65
2023/12/25 03:28:23;;;;;;;4.90;2.25;;;;;;;;;;6309001;28;20055;-65
2023/12/25 03:31:24;;;;;;;5.05;2.15;;;;;;;;;;6313088;28;20096;-64
2023/12/25 03:34:24;;;;;;;5.75;2.25;;;;;;;;;;6313709;28;20056;-64
2023/12/25 03:37:25;;;;;;;5.53;2.40;;;;;;;;;;6314011;28;20512;-65
2023/12/25 03:40:26;;;;;;;6.93;2.75;;;;;;;;;;6311181;28;20056;-64
2023/12/25 03:43:27;;;;;;;5.93;2.38;;;;;;;;;;6314213;28;20110;-64
2023/12/25 03:46:27;;;;;;;5.43;2.17;;;;;;;;;;6312229;28;20380;-65
2023/12/25 03:49:28;;;;;;;5.10;2.15;;;;;;;;;;6311696;28;20048;-64
2023/12/25 03:52:29;;;;;;;5.38;2.38;;;;;;;;;;6313108;28;20044;-64
2023/12/25 03:55:30;;;;;;;4.78;2.05;;;;;;;;;;6312953;28;20528;-64
2023/12/25 03:58:31;;;;;;;5.30;2.00;;;;;;;;;;6309802;28;20071;-65
2023/12/25 04:01:37;;;;;;;4.68;2.00;;;;;;;;;;6315077;28;20493;-65
2023/12/25 04:04:41;;;;;;;6.22;2.28;;;;;;;;;;6310191;28;20109;-65
2023/12/25 04:07:42;;;;;;;3.80;1.85;;;;;;;;;;6312035;28;20047;-65
2023/12/25 04:10:43;;;;;;;5.63;2.17;;;;;;;;;;6311034;28;20048;-64
2023/12/25 04:13:44;;;;;;;5.07;2.17;;;;;;;;;;6311753;28;20071;-65
2023/12/25 04:16:44;;;;;;;4.63;1.73;;;;;;;;;;6309219;28;20127;-65
2023/12/25 04:19:45;;;;;;;3.35;1.90;;;;;;;;;;6310347;28;20058;-64
2023/12/25 04:22:47;;;;;;;4.28;1.80;;;;;;;;;;6312430;28;20047;-65
2023/12/25 04:25:48;;;;;;;3.30;1.65;;;;;;;;;;6312560;28;20052;-65
2023/12/25 04:28:49;;;;;;;5.53;2.00;;;;;;;;;;6310590;28;20047;-65
2023/12/25 04:31:50;;;;;;;4.13;1.80;;;;;;;;;;6313105;28;20170;-65
2023/12/25 04:34:51;;;;;;;5.05;2.00;;;;;;;;;;6288873;28;20471;-65
2023/12/25 04:37:52;;;;;;;4.85;1.85;;;;;;;;;;6289087;28;20045;-64
2023/12/25 04:40:52;;;;;;;4.68;1.92;;;;;;;;;;6286740;28;20532;-65
2023/12/25 04:43:53;;;;;;;4.90;2.10;;;;;;;;;;6288348;28;20487;-65
2023/12/25 04:46:54;;;;;;;5.68;2.22;;;;;;;;;;6288596;28;20458;-65
2023/12/25 04:49:55;;;;;;;4.30;1.88;;;;;;;;;;6285387;28;20048;-65
2023/12/25 04:52:55;;;;;;;5.38;2.42;;;;;;;;;;6287675;28;20377;-65
2023/12/25 04:55:56;;;;;;;7.93;2.40;;;;;;;;;;6288854;28;20048;-65
2023/12/25 04:58:57;;;;;;;6.05;2.40;;;;;;;;;;6288181;28;20395;-65
2023/12/25 05:02:00;;;;;;;8.57;2.97;;;;;;;;;;6288345;28;20072;-65
2023/12/25 05:05:02;;;;;;;6.15;2.75;;;;;;;;;;6289736;28;20048;-65
2023/12/25 05:08:03;;;;;;;7.40;2.92;;;;;;;;;;6289108;28;20122;-65
2023/12/25 05:11:04;;;;;;;8.07;3.00;;;;;;;;;;6288092;28;20049;-65
2023/12/25 05:14:04;;;;;;;12.15;3.10;;;;;;;;;;6290076;28;20052;-65
2023/12/25 05:17:05;;;;;;;7.57;3.00;;;;;;;;;;6290140;28;20051;-65
2023/12/25 05:20:07;;;;;;;8.48;2.95;;;;;;;;;;6291687;28;20052;-65
2023/12/25 05:23:08;;;;;;;7.28;2.78;;;;;;;;;;6294043;28;20055;-65
2023/12/25 05:26:09;;;;;;;5.93;2.42;;;;;;;;;;6293875;28;20480;-65
2023/12/25 05:29:09;;;;;;;7.15;2.70;;;;;;;;;;6291228;28;20040;-65
2023/12/25 05:32:11;;;;;;;5.57;2.53;;;;;;;;;;6292439;28;20206;-65
2023/12/25 05:35:11;;;;;;;11.02;5.10;;;;;;;;;;6292945;28;20045;-65
2023/12/25 05:38:12;;;;;;;6.82;3.20;;;;;;;;;;6293919;28;20095;-65
2023/12/25 05:41:13;;;;;;;9.73;3.83;;;;;;;;;;6289513;28;20049;-65
2023/12/25 05:44:14;;;;;;;7.63;3.95;;;;;;;;;;6293237;28;20048;-65
2023/12/25 05:47:14;;;;;;;5.03;2.50;;;;;;;;;;6295005;28;20461;-65
2023/12/25 05:50:15;;;;;;;4.38;2.10;;;;;;;;;;6292511;28;20091;-65
2023/12/25 05:53:16;;;;;;;3.97;1.77;;;;;;;;;;6291984;28;20503;-65
2023/12/25 05:56:16;;;;;;;5.45;2.20;;;;;;;;;;6294855;28;20045;-65
2023/12/25 05:59:17;;;;;;;5.10;1.98;;;;;;;;;;6289216;28;20488;-65
2023/12/25 06:02:18;;;;;;;4.40;2.10;;;;;;;;;;6293051;28;20051;-64
2023/12/25 06:05:19;;;;;;;5.13;2.28;;;;;;;;;;6292391;28;20082;-65
2023/12/25 06:08:20;;;;;;;5.07;2.20;;;;;;;;;;6293006;28;20045;-65
2023/12/25 06:11:24;;;;;;;6.85;2.38;;;;;;;;;;6290869;28;20155;-64
2023/12/25 06:14:25;;;;;;;3.75;1.83;;;;;;;;;;6292048;28;20045;-65
2023/12/25 06:17:25;;;;;;;6.25;1.88;;;;;;;;;;6292886;28;20105;-65
2023/12/25 06:20:27;;;;;;;4.45;2.05;;;;;;;;;;6292641;28;20145;-65
2023/12/25 06:23:27;;;;;;;4.97;2.03;;;;;;;;;;6291388;28;20075;-65
2023/12/25 06:26:28;;;;;;;4.78;1.75;;;;;;;;;;6290617;28;20193;-65
2023/12/25 06:29:29;;;;;;;5.32;2.22;;;;;;;;;;6290195;28;20040;-64
2023/12/25 06:32:30;;;;;;;5.55;2.03;;;;;;;;;;6292326;28;20497;-64
2023/12/25 06:35:31;;;;;;;4.30;1.75;;;;;;;;;;6290913;28;20053;-64
2023/12/25 06:38:32;;;;;;;4.20;1.63;;;;;;;;;;6289255;28;20059;-65
2023/12/25 06:41:32;;;;;;;4.55;1.90;;;;;;;;;;6289629;28;20044;-64
2023/12/25 06:44:34;;;;;;;7.53;2.13;;;;;;;;;;6291973;28;20048;-64
2023/12/25 06:47:35;;;;;;;6.22;2.40;;;;;;;;;;6292489;28;20118;-64
2023/12/25 06:50:38;;;;;;;5.22;2.30;;;;;;;;;;6289560;28;20045;-62
2023/12/25 06:53:38;;;;;;;4.55;1.90;;;;;;;;;;6279662;28;20076;-68
2023/12/25 06:56:39;;;;;;;6.75;2.10;;;;;;;;;;6292574;28;20044;-66
2023/12/25 06:59:42;;;;;;;6.55;2.00;;;;;;;;;;6286349;28;20103;-63
2023/12/25 07:02:43;;;;;;;5.80;2.28;;;;;;;;;;6286491;28;20051;-64
2023/12/25 07:05:43;;;;;;;4.75;2.10;;;;;;;;;;6287982;28;20045;-65
2023/12/25 07:08:45;;;;;;;4.03;1.77;;;;;;;;;;6290803;28;20036;-67
2023/12/25 07:11:46;;;;;;;4.45;1.77;;;;;;;;;;6291010;28;20376;-65
2023/12/25 07:14:47;;;;;;;4.10;1.92;;;;;;;;;;6292354;28;20044;-66
2023/12/25 07:17:47;;;;;;;4.00;1.80;;;;;;;;;;6292546;28;20047;-66
2023/12/25 07:20:48;;;;;;;4.35;1.92;;;;;;;;;;6290888;28;20040;-65
2023/12/25 07:23:49;;;;;;;4.32;1.83;;;;;;;;;;6292635;28;20372;-65
2023/12/25 07:26:50;;;;;;;4.25;1.75;;;;;;;;;;6292971;28;20049;-65
2023/12/25 07:29:50;;;;;;;3.53;1.63;;;;;;;;;;6290809;28;20455;-66
2023/12/25 07:32:51;;;;;;;5.80;2.10;;;;;;;;;;6291708;28;20100;-65
2023/12/25 07:35:52;;;;;;;5.22;2.17;;;;;;;;;;6286212;28;20501;-65
2023/12/25 07:38:53;;;;;;;5.37;1.90;;;;;;;;;;6290097;28;20076;-66
2023/12/25 07:41:55;;;;;;;5.60;1.77;;;;;;;;;;6293443;28;20045;-65
2023/12/25 07:44:56;;;;;;;4.88;1.63;;;;;;;;;;6291965;28;20505;-65
2023/12/25 07:47:56;;;;;;;4.80;1.80;;;;;;;;;;6291745;28;20049;-67
2023/12/25 07:50:57;;;;;;;5.57;2.10;;;;;;;;;;6289339;28;20093;-62
2023/12/25 07:53:58;;;;;;;7.15;2.20;;;;;;;;;;6291946;28;20045;-62
2023/12/25 07:56:59;;;;;;;4.57;1.70;;;;;;;;;;6291730;28;20128;-67
2023/12/25 07:59:59;;;;;;;7.70;2.10;;;;;;;;;;6289662;28;20110;-62
2023/12/25 08:03:00;;;;;;;4.68;1.63;;;;;;;;;;6290805;28;20060;-67
2023/12/25 08:06:02;;;;;;;5.60;2.20;;;;;;;;;;6291223;28;20048;-66
2023/12/25 08:09:03;;;;;;;;;;;;;;;;;;6291404;28;20180;-67
2023/12/25 08:12:05;;;;;;;4.80;1.93;;;;;;;;;;6291074;28;19925;-61
2023/12/25 08:15:06;;;;;;;7.30;2.08;;;;;;;;;;6291546;28;20078;-63
2023/12/25 08:18:07;;;;;;;5.82;2.22;;;;;;;;;;6291408;28;20056;-61
2023/12/25 08:21:08;;;;;;;4.30;1.70;;;;;;;;;;6289995;28;20155;-62
2023/12/25 08:24:08;;;;;;;5.30;1.92;;;;;;;;;;6298050;28;20067;-68
2023/12/25 08:27:09;;;;;;;4.20;1.70;;;;;;;;;;6288536;28;20520;-58
2023/12/25 08:30:10;;;;;;;4.72;1.85;;;;;;;;;;6288367;28;20045;-61
2023/12/25 08:33:11;;;;;;;5.68;1.90;;;;;;;;;;6291596;28;20040;-66
2023/12/25 08:36:12;;;;;;;4.97;1.85;;;;;;;;;;6290370;28;20415;-67
2023/12/25 08:39:14;;;;;;;5.97;1.48;;;;;;;;;;6289911;28;20412;-63
2023/12/25 08:42:15;;;;;;;7.25;1.98;;;;;;;;;;6289168;28;20044;-66
2023/12/25 08:45:16;;;;;;;4.30;1.60;;;;;;;;;;6288284;28;20455;-63
2023/12/25 08:48:17;;;;;;;7.15;2.00;;;;;;;;;;6288490;28;20106;-65
2023/12/25 08:51:18;;;;;;;5.25;1.85;;;;;;;;;;6298949;28;20101;-64
2023/12/25 08:54:18;;;;;;;5.93;1.80;;;;;;;;;;6316683;28;20058;-64
2023/12/25 08:57:19;;;;;;;3.72;1.58;;;;;;;;;;6317748;28;20048;-64
2023/12/25 09:00:20;;;;;;;5.90;1.90;;;;;;;;;;6315343;28;20052;-64
2023/12/25 09:03:22;;;;;;;4.68;1.63;;;;;;;;;;6314852;28;20479;-64
2023/12/25 09:06:23;;;;;;;5.32;1.70;;;;;;;;;;6314542;28;20067;-64
2023/12/25 09:09:25;;;;;;;4.75;2.05;;;;;;;;;;6315212;28;20467;-65
2023/12/25 09:12:26;;;;;;;6.63;1.98;;;;;;;;;;6316742;28;20052;-65
2023/12/25 09:15:27;;;;;;;5.35;2.00;;;;;;;;;;6316251;28;20116;-64
2023/12/25 09:18:28;;;;;;;5.80;1.85;;;;;;;;;;6315362;28;20048;-65
2023/12/25 09:21:29;;;;;;;5.22;1.88;;;;;;;;;;6315066;28;20093;-65
2023/12/25 09:24:30;;;;;;;6.43;2.22;;;;;;;;;;6312963;28;20520;-65
2023/12/25 09:27:31;;;;;;;8.98;2.55;;;;;;;;;;6315220;28;20054;-64
2023/12/25 09:30:32;;;;;;;5.93;1.80;;;;;;;;;;6314653;28;20149;-65
2023/12/25 09:33:32;;;;;;;6.18;2.40;;;;;;;;;;6315361;28;20044;-64
2023/12/25 09:36:33;;;;;;;7.22;2.00;;;;;;;;;;6315322;28;21134;-65
2023/12/25 09:39:34;;;;;;;7.80;2.20;;;;;;;;;;6314177;28;20075;-65
2023/12/25 09:42:34;;;;;;;7.43;2.00;;;;;;;;;;6314858;28;20048;-64
2023/12/25 09:45:37;;;;;;;5.90;2.03;;;;;;;;;;6316058;28;20071;-65
2023/12/25 09:48:41;;;;;;;5.90;1.98;;;;;;;;;;6313827;28;20552;-64
2023/12/25 09:51:44;;;;;;;5.10;1.98;;;;;;;;;;6315247;28;20077;-64
2023/12/25 09:54:44;;;;;;;5.30;2.10;;;;;;;;;;6313500;28;20055;-66
2023/12/25 09:57:46;;;;;;;6.55;2.40;;;;;;;;;;6314516;28;20563;-64
2023/12/25 10:00:46;;;;;;;5.13;2.25;;;;;;;;;;6308934;28;20044;-64
2023/12/25 10:03:47;;;;;;;7.10;2.20;;;;;;;;;;6313666;28;20042;-63
2023/12/25 10:06:48;;;;;;;8.95;2.25;;;;;;;;;;6315343;28;20052;-64
2023/12/25 10:09:53;;;;;;;5.85;2.25;;;;;;;;;;6313779;28;20229;-64
2023/12/25 10:12:53;;;;;;;6.00;2.00;;;;;;;;;;6315714;28;20478;-64
2023/12/25 10:15:54;;;;;;;7.32;2.22;;;;;;;;;;6316148;28;20121;-64
2023/12/25 10:18:56;;;;;;;8.73;2.20;;;;;;;;;;6314602;28;20495;-64
2023/12/25 10:21:56;;;;;;;5.65;2.25;;;;;;;;;;6311278;28;20843;-63
2023/12/25 10:25:13;;;;;;;5.15;2.00;;;;;;;;;;6310897;28;20086;-64
2023/12/25 10:28:14;;;;;;;7.03;2.20;;;;;;;;;;6315177;28;20449;-64
2023/12/25 10:31:16;;;;;;;6.35;2.28;;;;;;;;;;6311150;28;20174;-64
2023/12/25 10:34:19;;;;;;;9.53;2.10;;;;;;;;;;6313646;28;20119;-64
2023/12/25 10:37:20;;;;;;;8.48;2.88;;;;;;;;;;6290120;28;20040;-65
2023/12/25 10:40:25;;;;;;;15.38;2.80;;;;;;;;;;6312446;28;20055;-63
2023/12/25 10:43:26;;;;;;;7.68;2.63;;;;;;;;;;6314325;28;20109;-65
2023/12/25 10:46:29;;;;;;;11.27;2.83;;;;;;;;;;6313628;28;20478;-64
2023/12/25 10:49:31;;;;;;;7.35;2.63;;;;;;;;;;6312415;28;20191;-66
2023/12/25 10:52:34;;;;;;;10.57;3.90;;;;;;;;;;6305790;28;20442;-65
2023/12/25 10:55:37;;;;;;;6.63;2.78;;;;;;;;;;6314081;28;20079;-65
2023/12/25 10:58:38;;;;;;;11.52;4.15;;;;;;;;;;6313988;28;20044;-63
2023/12/25 11:01:46;;;;;;;10.30;3.95;;;;;;;;;;6313625;28;20484;-64
2023/12/25 11:04:49;;;;;;;8.45;3.53;;;;;;;;;;6310568;28;20068;-64
2023/12/25 11:07:49;;;;;;;6.20;2.47;;;;;;;;;;6307942;28;20503;-64
2023/12/25 11:10:51;;;;;;;8.77;3.25;;;;;;;;;;6314584;28;20055;-64
2023/12/25 11:13:52;;;;;;;9.55;3.10;;;;;;;;;;6311101;28;20076;-65
2023/12/25 11:16:53;;;;;;;9.48;2.83;;;;;;;;;;6291263;28;20552;-64
2023/12/25 11:19:55;;;;;;;8.98;3.30;;;;;;;;;;6311348;28;20041;-64
2023/12/25 11:22:56;;;;;;;9.25;4.38;;;;;;;;;;6286334;28;20048;-63
2023/12/25 11:25:58;;;;;;;13.73;6.32;;;;;;;;;;6268981;28;20060;-63
2023/12/25 11:29:08;;;;;;;16.42;9.52;;;;;;;;;;6266225;28;21228;-63
2023/12/25 11:32:11;;;;;;;8.98;3.00;;;;;;;;;;6267536;28;20171;-63
2023/12/25 11:35:17;;;;;;;11.77;3.28;;;;;;;;;;6269523;28;20157;-64
2023/12/25 11:38:20;;;;;;;13.75;5.28;;;;;;;;;;6269016;28;20484;-65
2023/12/25 11:41:22;;;;;;;9.52;2.75;;;;;;;;;;6271806;28;20059;-65
2023/12/25 11:44:33;;;;;;;;;;;;;;;;;;6260731;28;20083;-63
2023/12/25 11:47:44;;;;;;;9.23;2.88;;;;;;;;;;6270042;28;19934;-65
2023/12/25 11:50:45;;;;;;;10.07;3.50;;;;;;;;;;6268036;28;20079;-64
2023/12/25 11:53:48;;;;;;;14.10;5.28;;;;;;;;;;6265849;28;21221;-65
2023/12/25 11:56:49;;;;;;;12.75;5.03;;;;;;;;;;6269837;28;20048;-65
2023/12/25 11:59:50;;;;;;;9.43;3.35;;;;;;;;;;6267683;28;20126;-64
2023/12/25 12:02:50;;;;;;;10.90;4.32;;;;;;;;;;6266494;28;20059;-63
2023/12/25 12:05:53;;;;;;;11.25;4.25;;;;;;;;;;6270474;28;20059;-61
2023/12/25 12:08:53;;;;;;;9.82;3.42;;;;;;;;;;6266814;28;20045;-62
2023/12/25 12:11:54;;;;;;;8.48;3.47;;;;;;;;;;6270448;28;20423;-63
2023/12/25 12:14:55;;;;;;;8.68;2.85;;;;;;;;;;6262686;28;20420;-63
2023/12/25 12:17:56;;;;;;;11.55;3.78;;;;;;;;;;6266832;28;20119;-64
2023/12/25 12:20:58;;;;;;;9.05;2.95;;;;;;;;;;6267356;28;20076;-64
2023/12/25 12:23:59;;;;;;;7.38;2.83;;;;;;;;;;6266948;28;20131;-65
2023/12/25 12:27:10;;;;;;;9.68;3.30;;;;;;;;;;6263949;28;20094;-62
2023/12/25 12:30:12;;;;;;;9.30;3.30;;;;;;;;;;6269245;28;20484;-64
2023/12/25 12:33:14;;;;;;;7.85;3.22;;;;;;;;;;6268921;28;20056;-63
2023/12/25 12:36:15;;;;;;;11.13;3.78;;;;;;;;;;6266190;28;20053;-66
2023/12/25 12:39:17;;;;;;;10.43;3.67;;;;;;;;;;6266843;28;20045;-65
2023/12/25 12:42:21;;;;;;;14.25;4.90;;;;;;;;;;6267754;28;20057;-65
2023/12/25 12:45:21;;;;;;;12.95;4.88;;;;;;;;;;6269493;28;20065;-65
2023/12/25 12:48:22;;;;;;;14.00;5.00;;;;;;;;;;6268348;28;20055;-67
2023/12/25 12:51:25;;;;;;;13.52;4.78;;;;;;;;;;6273015;28;20427;-68
2023/12/25 12:54:26;;;;;;;12.65;4.50;;;;;;;;;;6268908;28;20049;-67
2023/12/25 12:57:27;;;;;;;14.82;4.10;;;;;;;;;;6274713;28;20056;-67
2023/12/25 13:00:28;;;;;;;13.50;4.35;;;;;;;;;;6270538;28;20461;-62
2023/12/25 13:03:28;;;;;;;12.25;4.30;;;;;;;;;;6267909;28;20128;-68
2023/12/25 13:06:29;;;;;;;12.07;3.95;;;;;;;;;;6271622;28;20056;-67
2023/12/25 13:09:30;;;;;;;10.82;3.65;;;;;;;;;;6267660;28;20550;-63
2023/12/25 13:12:31;;;;;;;11.00;4.05;;;;;;;;;;6264660;28;20099;-64
2023/12/25 13:15:31;;;;;;;11.77;4.78;;;;;;;;;;6270328;28;20040;-64
2023/12/25 13:18:32;;;;;;;13.70;4.88;;;;;;;;;;6273466;28;20140;-64
2023/12/25 13:21:32;;;;;;;13.07;5.00;;;;;;;;;;6272167;28;20602;-63
2023/12/25 13:24:33;;;;;;;13.32;4.22;;;;;;;;;;6267860;28;20484;-64
2023/12/25 13:27:34;;;;;;;11.25;4.75;;;;;;;;;;6271049;28;20074;-62
2023/12/25 13:30:35;;;;;;;30.58;14.52;;;;;;;;;;6268733;28;20064;-64
2023/12/25 13:33:39;;;;;;;16.83;6.60;;;;;;;;;;6265304;28;20045;-68
2023/12/25 13:36:42;;;;;;;15.45;5.22;;;;;;;;;;6267117;28;20049;-65
2023/12/25 13:39:42;;;;;;;18.38;5.38;;;;;;;;;;6276663;28;20056;-61
2023/12/25 13:42:43;;;;;;;15.15;5.28;;;;;;;;;;6273215;28;20118;-62
2023/12/25 13:45:44;;;;;;;16.55;5.38;;;;;;;;;;6271078;28;20048;-60
2023/12/25 13:48:45;;;;;;;13.80;5.23;;;;;;;;;;6270828;28;20755;-64
2023/12/25 13:51:46;;;;;;;18.88;6.30;;;;;;;;;;6279339;28;20056;-63
2023/12/25 13:54:47;;;;;;;15.02;4.70;;;;;;;;;;6270204;28;20049;-63
2023/12/25 13:57:47;;;;;;;14.27;5.22;;;;;;;;;;6270330;28;20480;-63
2023/12/25 14:00:48;;;;;;;14.65;6.40;;;;;;;;;;6272091;28;20519;-64
2023/12/25 14:03:49;;;;;;;16.65;5.13;;;;;;;;;;6272805;28;20055;-62
2023/12/25 14:06:49;;;;;;;15.18;5.20;;;;;;;;;;6269579;28;20117;-64
2023/12/25 14:09:50;;;;;;;14.48;4.82;;;;;;;;;;6276388;28;20507;-63
2023/12/25 14:12:51;;;;;;;15.38;4.72;;;;;;;;;;6270690;28;20502;-63
2023/12/25 14:15:51;;;;;;;13.02;4.68;;;;;;;;;;6268452;28;20049;-62
2023/12/25 14:18:52;;;;;;;13.35;5.28;;;;;;;;;;6268420;28;20056;-62
2023/12/25 14:21:53;;;;;;;18.42;5.15;;;;;;;;;;6271103;28;20036;-63
2023/12/25 14:24:56;;;;;;;11.57;4.53;;;;;;;;;;6272057;28;20148;-63
2023/12/25 14:27:57;;;;;;;14.50;5.75;;;;;;;;;;6272355;28;20049;-65
2023/12/25 14:30:58;;;;;;;17.30;6.28;;;;;;;;;;6270782;28;20048;-64
2023/12/25 14:33:58;;;;;;;18.85;6.75;;;;;;;;;;6265532;28;20099;-61
2023/12/25 14:37:00;;;;;;;17.92;6.10;;;;;;;;;;6271523;28;20045;-62
2023/12/25 14:40:00;;;;;;;17.77;6.03;;;;;;;;;;6268104;28;20670;-61
2023/12/25 14:43:01;;;;;;;21.95;7.63;;;;;;;;;;6271623;28;20052;-61
2023/12/25 14:46:02;;;;;;;19.15;6.78;;;;;;;;;;6272015;28;20057;-61
2023/12/25 14:49:03;;;;;;;20.98;7.90;;;;;;;;;;6271710;28;20546;-62
2023/12/25 14:52:04;;;;;;;17.92;7.00;;;;;;;;;;6277010;28;20033;-61
2023/12/25 14:55:05;;;;;;;24.13;8.52;;;;;;;;;;6268350;28;20056;-64
2023/12/25 14:58:05;;;;;;;22.98;8.68;;;;;;;;;;6268579;28;21306;-64
2023/12/25 15:01:06;;;;;;;23.00;8.40;;;;;;;;;;6270166;28;20065;-61
2023/12/25 15:04:06;;;;;;;21.23;8.25;;;;;;;;;;6266562;28;20045;-65
2023/12/25 15:07:07;;;;;;;20.77;8.23;;;;;;;;;;6269790;28;20053;-63
2023/12/25 15:10:08;;;;;;;19.95;7.72;;;;;;;;;;6276204;28;20438;-64
2023/12/25 15:13:09;;;;;;;23.73;8.40;;;;;;;;;;6268053;28;21061;-64
2023/12/25 15:16:10;;;;;;;21.95;8.30;;;;;;;;;;6267303;28;20049;-63
2023/12/25 15:19:11;;;;;;;22.35;8.20;;;;;;;;;;6268212;28;20430;-63
2023/12/25 15:22:12;;;;;;;23.27;8.55;;;;;;;;;;6270749;28;20087;-65
2023/12/25 15:25:13;;;;;;;26.35;8.48;;;;;;;;;;6268267;28;20048;-63
2023/12/25 15:28:13;;;;;;;24.83;8.75;;;;;;;;;;6268557;28;20487;-61
2023/12/25 15:31:14;;;;;;;23.25;8.55;;;;;;;;;;6269489;28;20060;-61
2023/12/25 15:34:16;;;;;;;24.10;9.30;;;;;;;;;;6270909;28;20531;-62
2023/12/25 15:37:17;;;;;;;24.13;9.63;;;;;;;;;;6266250;28;20091;-66
2023/12/25 15:40:18;;;;;;;24.98;9.00;;;;;;;;;;6270836;28;20056;-60
2023/12/25 15:43:18;;;;;;;23.92;9.05;;;;;;;;;;6273624;28;20139;-64
2023/12/25 15:46:19;;;;;;;22.75;8.98;;;;;;;;;;6267106;28;20049;-65
2023/12/25 15:49:21;;;;;;;18.40;8.10;;;;;;;;;;6266606;28;20045;-67
2023/12/25 15:52:21;;;;;;;17.05;7.55;;;;;;;;;;6267652;28;20562;-65
2023/12/25 15:55:23;;;;;;;19.35;7.53;;;;;;;;;;6265432;28;20056;-65
2023/12/25 15:58:23;;;;;;;16.40;6.72;;;;;;;;;;6267883;28;20056;-63
2023/12/25 16:01:25;;;;;;;15.98;6.40;;;;;;;;;;6268675;28;20051;-65
2023/12/25 16:04:26;;;;;;;13.70;5.95;;;;;;;;;;6272955;28;20053;-65
2023/12/25 16:07:28;;;;;;;14.65;5.97;;;;;;;;;;6265567;28;20411;-64
2023/12/25 16:10:29;;;;;;;14.63;5.43;;;;;;;;;;6267877;28;20492;-65
2023/12/25 16:13:30;;;;;;;14.50;5.90;;;;;;;;;;6266344;28;20051;-63
2023/12/25 16:16:30;;;;;;;13.90;5.80;;;;;;;;;;6267677;28;20060;-64
2023/12/25 16:19:31;;;;;;;15.30;6.32;;;;;;;;;;6271358;28;20058;-64
2023/12/25 16:22:32;;;;;;;16.52;6.60;;;;;;;;;;6268338;28;20472;-63
2023/12/25 16:25:33;;;;;;;15.32;6.10;;;;;;;;;;6269411;28;20502;-64
2023/12/25 16:28:34;;;;;;;14.40;5.60;;;;;;;;;;6269258;28;20045;-65
2023/12/25 16:31:35;;;;;;;13.02;5.88;;;;;;;;;;6276111;28;20230;-63
2023/12/25 16:34:36;;;;;;;12.40;5.63;;;;;;;;;;6265543;28;20048;-62
2023/12/25 16:37:37;;;;;;;13.25;5.50;;;;;;;;;;6266530;28;20044;-65
2023/12/25 16:40:38;;;;;;;13.23;6.07;;;;;;;;;;6266351;28;20052;-64
2023/12/25 16:43:39;;;;;;;15.77;5.80;;;;;;;;;;6266096;28;20045;-64
2023/12/25 16:46:39;;;;;;;15.63;6.18;;;;;;;;;;6264133;28;20118;-64
2023/12/25 16:49:40;;;;;;;11.80;4.80;;;;;;;;;;6270546;28;20454;-64
2023/12/25 16:52:43;;;;;;;11.60;6.10;;;;;;;;;;6267156;28;20420;-65
2023/12/25 16:55:43;;;;;;;11.20;4.80;;;;;;;;;;6269003;28;20071;-63
2023/12/25 16:58:44;;;;;;;10.45;4.13;;;;;;;;;;6267731;28;20052;-63
2023/12/25 17:01:45;;;;;;;9.68;4.78;;;;;;;;;;6272165;28;20246;-63
2023/12/25 17:04:45;;;;;;;12.40;4.68;;;;;;;;;;6265910;28;20146;-63
2023/12/25 17:07:46;;;;;;;9.90;4.57;;;;;;;;;;6262818;28;20049;-66
2023/12/25 17:10:47;;;;;;;21.30;9.98;;;;;;;;;;6268044;28;20052;-66
2023/12/25 17:13:48;;;;;;;108.95;30.55;;;;;;;;;;6268380;28;20053;-64
2023/12/25 17:16:49;;;;;;;17.27;7.78;;;;;;;;;;6267637;28;20049;-63
2023/12/25 17:19:52;;;;;;;9.93;4.43;;;;;;;;;;6271244;28;20052;-65
2023/12/25 17:22:53;;;;;;;31.60;19.42;;;;;;;;;;6272709;28;20049;-65
2023/12/25 17:25:55;;;;;;;16.45;7.07;;;;;;;;;;6271009;28;20496;-63
2023/12/25 17:28:55;;;;;;;12.13;5.70;;;;;;;;;;6274798;28;20048;-65
2023/12/25 17:31:56;;;;;;;17.27;8.35;;;;;;;;;;6272100;28;20147;-65
2023/12/25 17:34:57;;;;;;;17.55;7.70;;;;;;;;;;6273061;28;20059;-64
2023/12/25 17:37:58;;;;;;;17.52;6.63;;;;;;;;;;6271160;28;20532;-66
2023/12/25 17:40:58;;;;;;;16.73;7.13;;;;;;;;;;6273503;28;20048;-65
2023/12/25 17:44:00;;;;;;;16.98;7.10;;;;;;;;;;6268731;28;20056;-65
2023/12/25 17:47:01;;;;;;;19.75;8.82;;;;;;;;;;6272528;28;20056;-64
2023/12/25 17:50:04;;;;;;;14.65;6.00;;;;;;;;;;6274707;28;20242;-67
2023/12/25 17:53:05;;;;;;;14.02;6.03;;;;;;;;;;6272442;28;20447;-62
2023/12/25 17:56:07;;;;;;;17.88;7.72;;;;;;;;;;6273601;28;20186;-64
2023/12/25 17:59:07;;;;;;;;;;;;;;;;;;6276257;28;20067;-63
2023/12/25 18:02:08;;;;;;;24.45;10.57;;;;;;;;;;6270860;28;19929;-61